Time;durP1;ratioP1;P1;durP2;ratioP2;P2;SDS_P1;SDS_P2;PMS_P1;PMS_P2;Temp;Humidity;BMP_temperature;BMP_pressure;BME280_temperature;BME280_humidity;BME280_pressure;Samples;Min_cycle;Max_cycle;Signal;HPM_P1;HPM_P2
2022/01/19 00:02:12;;;;;;;;;;;;;;;;;;;;;
2022/01/19 00:04:44;;;;;;;35.50;19.50;;;6.50;99.90;;;;;;4962353;28;20031;-89
2022/01/19 00:07:42;;;;;;;;;;;;;;;;;;;;;
2022/01/19 00:10:26;;;;;;;;;;;;;;;;;;;;;
2022/01/19 00:13:07;;;;;;;37.65;19.00;;;6.50;99.90;;;;;;4962650;28;20065;-89
2022/01/19 00:16:06;;;;;;;31.33;18.73;;;6.50;99.90;;;;;;4959974;28;20443;-89
2022/01/19 00:18:52;;;;;;;33.55;17.88;;;6.50;99.90;;;;;;4946832;28;20042;-90
2022/01/19 00:21:28;;;;;;;36.78;18.77;;;6.50;99.90;;;;;;4976885;28;20019;-89
2022/01/19 00:24:07;;;;;;;38.70;19.27;;;6.50;99.90;;;;;;4961524;28;20465;-88
2022/01/19 00:26:53;;;;;;;;;;;;;;;;;;;;;
2022/01/19 00:29:21;;;;;;;37.25;20.13;;;6.40;99.90;;;;;;4977517;28;20398;-89
2022/01/19 00:32:07;;;;;;;35.85;20.08;;;6.40;99.90;;;;;;4959348;28;20502;-88
2022/01/19 00:34:54;;;;;;;34.53;18.52;;;6.40;99.90;;;;;;4959840;28;20045;-88
2022/01/19 00:38:00;;;;;;;;;;;;;;;;;;;;;
2022/01/19 00:41:02;;;;;;;;;;;;;;;;;;;;;
2022/01/19 00:43:58;;;;;;;;;;;6.40;99.90;;;;;;4963329;28;20043;-89
2022/01/19 00:46:44;;;;;;;;;;;;;;;;;;;;;
2022/01/19 00:49:29;;;;;;;;;;;;;;;;;;;;;
2022/01/19 00:52:27;;;;;;;37.70;19.85;;;6.30;99.90;;;;;;4958019;29;20035;-89
2022/01/19 00:54:58;;;;;;;36.20;18.90;;;6.30;99.90;;;;;;4940750;29;20031;-90
2022/01/19 00:57:44;;;;;;;;;;;;;;;;;;;;;
2022/01/19 01:00:34;;;;;;;32.53;17.63;;;6.20;99.90;;;;;;4949537;28;20483;-88
2022/01/19 01:03:28;;;;;;;34.30;18.05;;;6.10;99.90;;;;;;4960050;28;20331;-89
2022/01/19 01:06:14;;;;;;;31.55;17.13;;;6.00;99.90;;;;;;4977567;28;20049;-90
2022/01/19 01:08:45;;;;;;;33.65;17.77;;;6.00;99.90;;;;;;4948733;28;20047;-88
2022/01/19 01:11:32;;;;;;;28.42;17.85;;;5.90;99.90;;;;;;4960625;28;20564;-90
2022/01/19 01:17:12;;;;;;;36.58;18.95;;;5.80;99.90;;;;;;4966041;28;20042;-89
2022/01/19 01:19:58;;;;;;;;;;;;;;;;;;;;;
2022/01/19 01:23:02;;;;;;;33.00;18.05;;;5.70;99.90;;;;;;4979473;28;20069;-90
2022/01/19 01:25:48;;;;;;;;;;;;;;;;;;;;;
2022/01/19 01:28:31;;;;;;;;;;;;;;;;;;;;;
2022/01/19 01:31:24;;;;;;;;;;;;;;;;;;;;;
2022/01/19 01:34:19;;;;;;;30.77;17.60;;;5.50;99.90;;;;;;4962292;28;20039;-89
2022/01/19 01:37:17;;;;;;;28.33;16.27;;;5.40;99.90;;;;;;4959256;28;20023;-89
2022/01/19 01:39:57;;;;;;;34.80;16.65;;;5.40;99.90;;;;;;4959565;28;20038;-90
2022/01/19 01:42:27;;;;;;;32.13;15.52;;;5.40;99.90;;;;;;4928920;28;20471;-89
2022/01/19 01:44:59;;;;;;;34.70;15.43;;;5.40;99.90;;;;;;4943779;28;20023;-89
2022/01/19 01:47:49;;;;;;;;;;;;;;;;;;;;;
2022/01/19 01:53:39;;;;;;;22.33;13.38;;;5.40;99.90;;;;;;4964623;28;20186;-90
2022/01/19 01:56:40;;;;;;;;;;;;;;;;;;;;;
2022/01/19 01:59:23;;;;;;;21.85;12.70;;;5.30;99.90;;;;;;4960470;28;20501;-88
2022/01/19 02:02:01;;;;;;;30.70;13.68;;;5.30;99.90;;;;;;4976097;28;20472;-90
2022/01/19 02:04:30;;;;;;;20.60;14.02;;;5.20;99.90;;;;;;4959156;28;20109;-90
2022/01/19 02:09:34;;;;;;;22.20;14.52;;;5.10;99.90;;;;;;4975854;28;20069;-89
2022/01/19 02:24:02;;;;;;;19.17;12.90;;;5.10;99.90;;;;;;4975361;28;20062;-89
2022/01/19 02:40:35;;;;;;;25.98;16.08;;;5.00;99.90;;;;;;4960657;29;20053;-89
2022/01/19 02:51:09;;;;;;;35.00;19.02;;;5.00;99.90;;;;;;4979378;28;20075;-90
2022/01/19 02:53:36;;;;;;;31.75;18.20;;;5.00;99.90;;;;;;4947835;28;20109;-88
2022/01/19 02:56:41;;;;;;;;;;;;;;;;;;;;;
2022/01/19 03:10:20;;;;;;;29.20;17.63;;;4.90;99.90;;;;;;4978927;28;20050;-88
2022/01/19 03:13:00;;;;;;;33.65;18.42;;;4.90;99.90;;;;;;4962002;28;20463;-88
2022/01/19 03:15:36;;;;;;;29.67;16.88;;;4.80;99.90;;;;;;4961981;28;20133;-89
2022/01/19 03:18:08;;;;;;;29.80;16.40;;;4.80;99.90;;;;;;4977991;28;20467;-88
2022/01/19 03:20:46;;;;;;;;;;;;;;;;;;;;;
2022/01/19 03:23:20;;;;;;;30.60;18.63;;;4.70;99.90;;;;;;4978232;28;20033;-88
2022/01/19 03:26:01;;;;;;;33.30;17.52;;;4.80;99.90;;;;;;4978119;28;20427;-89
2022/01/19 03:28:37;;;;;;;28.00;16.95;;;4.70;99.90;;;;;;4978754;28;20035;-88
2022/01/19 03:31:14;;;;;;;28.40;17.08;;;4.70;99.90;;;;;;4977530;28;20050;-89
2022/01/19 03:34:20;;;;;;;29.23;16.55;;;4.60;99.90;;;;;;4978075;28;20031;-90
2022/01/19 03:36:55;;;;;;;30.23;17.60;;;4.60;99.90;;;;;;4976551;28;20535;-88
2022/01/19 03:40:31;;;;;;;32.50;17.52;;;4.50;99.90;;;;;;4978839;28;20031;-88
2022/01/19 03:42:40;;;;;;;33.20;17.67;;;4.50;99.90;;;;;;4972661;28;20039;-89
2022/01/19 03:45:18;;;;;;;;;;;;;;;;;;;;;
2022/01/19 03:51:08;;;;;;;28.50;17.55;;;4.40;99.90;;;;;;4978381;28;20039;-89
2022/01/19 03:53:48;;;;;;;;;;;4.40;99.90;;;;;;4978097;28;20062;-89
2022/01/19 03:56:20;;;;;;;26.75;15.15;;;4.30;99.90;;;;;;4961477;28;19906;-88
2022/01/19 03:58:53;;;;;;;29.17;16.73;;;4.20;99.90;;;;;;4977531;28;20031;-90
2022/01/19 04:01:51;;;;;;;26.92;16.17;;;4.20;99.90;;;;;;4961715;28;20062;-89
2022/01/19 04:04:32;;;;;;;26.92;16.17;;;4.20;99.90;;;;;;4976032;28;20493;-89
2022/01/19 04:07:28;;;;;;;;;;;;;;;;;;;;;
2022/01/19 04:10:09;;;;;;;28.58;16.73;;;4.10;99.90;;;;;;4983139;28;20031;-89
2022/01/19 04:13:21;;;;;;;;;;;;;;;;;;;;;
2022/01/19 04:15:45;;;;;;;24.85;15.63;;;4.00;99.90;;;;;;5000984;28;20015;-90
2022/01/19 04:18:24;;;;;;;;;;;;;;;;;;;;;
2022/01/19 04:20:56;;;;;;;23.25;14.70;;;3.90;99.90;;;;;;4979905;28;20027;-90
2022/01/19 04:24:01;;;;;;;;;;;;;;;;;;;;;
2022/01/19 04:26:41;;;;;;;;;;;;;;;;;;;;;
2022/01/19 04:29:14;;;;;;;26.90;16.88;;;3.80;99.90;;;;;;4978163;28;20034;-88
2022/01/19 04:31:42;;;;;;;28.55;15.77;;;3.80;99.90;;;;;;4961616;28;20578;-89
2022/01/19 04:34:23;;;;;;;;;;;;;;;;;;;;;
2022/01/19 05:04:53;;;;;;;21.50;13.50;;;3.70;99.90;;;;;;4962829;28;20039;-89
2022/01/19 05:13:30;;;;;;;23.60;14.85;;;3.60;99.90;;;;;;4977310;28;20110;-87
2022/01/19 05:16:01;;;;;;;24.38;14.13;;;3.50;99.90;;;;;;4959812;28;20027;-89
2022/01/19 05:18:30;;;;;;;23.55;13.35;;;3.60;99.90;;;;;;4959861;28;20031;-88
2022/01/19 05:21:01;;;;;;;22.15;14.00;;;3.60;99.90;;;;;;4975590;28;20041;-88
2022/01/19 05:23:37;;;;;;;23.15;13.32;;;3.50;99.90;;;;;;4960027;28;20054;-89
2022/01/19 05:26:16;;;;;;;20.70;13.30;;;3.50;99.90;;;;;;4976312;28;20023;-89
2022/01/19 05:28:52;;;;;;;21.42;13.18;;;3.60;99.90;;;;;;4943810;28;20039;-90
2022/01/19 05:31:31;;;;;;;21.88;13.18;;;3.50;99.90;;;;;;4959978;28;20022;-90
2022/01/19 05:34:02;;;;;;;20.23;13.07;;;3.50;99.90;;;;;;4947092;28;20023;-89
2022/01/19 05:36:33;;;;;;;;;;;3.50;99.90;;;;;;4977997;28;20035;-91
2022/01/19 05:39:08;;;;;;;22.27;13.57;;;3.60;99.90;;;;;;4982361;28;20255;-90
2022/01/19 05:41:42;;;;;;;21.98;13.93;;;3.50;99.90;;;;;;4976880;28;20031;-90
2022/01/19 05:44:18;;;;;;;27.45;14.50;;;3.60;99.90;;;;;;4965095;28;20037;-89
2022/01/19 05:46:46;;;;;;;22.27;15.00;;;3.60;99.90;;;;;;4961079;28;20035;-90
2022/01/19 05:49:13;;;;;;;21.25;15.10;;;3.60;99.90;;;;;;4959302;28;20027;-89
2022/01/19 05:51:51;;;;;;;24.52;16.25;;;3.60;99.90;;;;;;4959193;28;20046;-90
2022/01/19 05:54:24;;;;;;;24.15;16.45;;;3.70;99.90;;;;;;4959170;28;20027;-89
2022/01/19 05:56:52;;;;;;;27.27;16.35;;;3.70;99.90;;;;;;4959841;28;20038;-89
2022/01/19 05:59:27;;;;;;;26.60;16.90;;;3.70;99.90;;;;;;4959133;28;20057;-90
2022/01/19 06:01:55;;;;;;;27.85;17.50;;;3.80;99.90;;;;;;4959754;28;20033;-90
2022/01/19 06:04:21;;;;;;;27.65;18.17;;;3.80;99.90;;;;;;4958649;28;20051;-90
2022/01/19 06:06:55;;;;;;;27.63;17.02;;;3.80;99.90;;;;;;4959320;28;20034;-90
2022/01/19 06:12:14;;;;;;;31.30;19.63;;;3.80;99.90;;;;;;4960352;28;20677;-92
2022/01/19 06:14:50;;;;;;;28.80;19.17;;;3.80;99.90;;;;;;4958605;28;20023;-90
2022/01/19 06:17:20;;;;;;;31.70;19.50;;;3.90;99.90;;;;;;4959190;28;20030;-93
2022/01/19 06:19:49;;;;;;;29.42;19.92;;;3.90;99.90;;;;;;4943394;28;20039;-94
2022/01/19 06:22:25;;;;;;;;;;;;;;;;;;;;;
2022/01/19 06:24:51;;;;;;;41.50;24.02;;;4.00;99.90;;;;;;4975845;28;20035;-89
2022/01/19 06:27:19;;;;;;;43.92;25.10;;;4.00;99.90;;;;;;4958119;28;20118;-87
2022/01/19 06:29:48;;;;;;;48.03;26.08;;;4.10;99.90;;;;;;4942196;28;20035;-88
2022/01/19 06:32:16;;;;;;;43.92;25.95;;;4.10;99.90;;;;;;4957686;28;20057;-88
2022/01/19 06:34:47;;;;;;;46.70;25.30;;;4.10;99.90;;;;;;4957894;28;20027;-89
2022/01/19 06:37:12;;;;;;;45.35;27.17;;;4.10;99.90;;;;;;4941537;28;20126;-87
2022/01/19 06:39:41;;;;;;;47.47;26.42;;;4.10;99.90;;;;;;4957993;28;20077;-91
2022/01/19 06:42:13;;;;;;;50.20;27.95;;;4.20;99.90;;;;;;4957915;28;20026;-88
2022/01/19 06:44:39;;;;;;;51.95;28.88;;;4.20;99.90;;;;;;4973659;28;20066;-87
2022/01/19 06:47:07;;;;;;;47.63;27.58;;;4.20;99.90;;;;;;4941914;28;20069;-88
2022/01/19 06:49:43;;;;;;;48.75;28.40;;;4.20;99.90;;;;;;4957650;28;20027;-87
2022/01/19 06:52:14;;;;;;;47.97;27.95;;;4.20;99.90;;;;;;4957969;28;20102;-88
2022/01/19 06:55:16;;;;;;;47.80;27.83;;;4.30;99.90;;;;;;4943618;28;20050;-89
2022/01/19 06:57:52;;;;;;;44.88;26.23;;;4.20;99.90;;;;;;4974702;28;20023;-89
2022/01/19 07:00:41;;;;;;;48.58;26.33;;;4.20;99.90;;;;;;4960913;28;20027;-89
2022/01/19 07:03:10;;;;;;;48.60;26.75;;;4.20;99.90;;;;;;4998180;28;20022;-89
2022/01/19 07:06:03;;;;;;;45.58;27.02;;;4.30;99.90;;;;;;4981700;28;20100;-90
2022/01/19 07:11:29;;;;;;;47.83;27.73;;;4.30;99.90;;;;;;4977450;28;20117;-89
2022/01/19 07:13:57;;;;;;;47.40;26.67;;;4.30;99.90;;;;;;4958704;28;20078;-91
2022/01/19 07:16:28;;;;;;;44.70;25.52;;;4.20;99.90;;;;;;4957894;28;20436;-90
2022/01/19 07:18:58;;;;;;;43.80;25.10;;;4.30;99.90;;;;;;4957387;28;20065;-88
2022/01/19 07:21:50;;;;;;;43.70;24.35;;;4.30;99.90;;;;;;4974252;28;20035;-87
2022/01/19 07:24:23;;;;;;;44.55;25.63;;;4.30;99.90;;;;;;4957125;28;20042;-88
2022/01/19 07:26:53;;;;;;;43.80;25.80;;;4.30;99.90;;;;;;4956880;28;20022;-88
2022/01/19 07:29:45;;;;;;;43.83;25.02;;;4.30;99.90;;;;;;4974864;28;20118;-88
2022/01/19 07:32:28;;;;;;;48.95;27.08;;;4.30;99.90;;;;;;4957478;28;20022;-88
2022/01/19 07:34:59;;;;;;;42.72;24.75;;;4.30;99.90;;;;;;4960023;28;20513;-88
2022/01/19 07:37:54;;;;;;;43.13;23.33;;;4.30;99.90;;;;;;4941817;28;20030;-89
2022/01/19 07:40:32;;;;;;;41.50;24.02;;;4.40;99.90;;;;;;4950277;28;20066;-89
2022/01/19 07:43:00;;;;;;;45.58;25.63;;;4.40;99.90;;;;;;4974253;28;20031;-90
2022/01/19 07:45:48;;;;;;;44.47;24.67;;;4.40;99.90;;;;;;4941753;28;20031;-90
2022/01/19 07:48:43;;;;;;;38.40;23.80;;;4.40;99.90;;;;;;4960629;28;20027;-90
2022/01/19 07:51:21;;;;;;;41.65;24.10;;;4.40;99.90;;;;;;4958236;28;20026;-89
2022/01/19 07:54:10;;;;;;;40.00;23.85;;;4.40;99.90;;;;;;4961377;28;20031;-91
2022/01/19 07:56:43;;;;;;;42.92;23.45;;;4.40;99.90;;;;;;4977894;28;20033;-89
2022/01/19 07:59:24;;;;;;;;;;;;;;;;;;;;;
2022/01/19 08:01:57;;;;;;;39.83;23.42;;;4.40;99.90;;;;;;4977793;28;20501;-87
2022/01/19 08:04:25;;;;;;;38.72;22.58;;;4.40;99.90;;;;;;4960977;28;20023;-88
2022/01/19 08:07:03;;;;;;;44.78;25.10;;;4.50;99.90;;;;;;4961612;28;20059;-88
2022/01/19 08:09:36;;;;;;;40.13;24.33;;;4.50;99.90;;;;;;4961639;28;20109;-89
2022/01/19 08:12:10;;;;;;;39.88;24.20;;;4.50;99.90;;;;;;4961387;28;20053;-89
2022/01/19 08:14:59;;;;;;;41.08;24.67;;;4.50;99.90;;;;;;4962378;28;20031;-89
2022/01/19 08:17:36;;;;;;;37.55;23.70;;;4.50;99.90;;;;;;4961488;28;20035;-91
2022/01/19 08:20:13;;;;;;;39.22;24.00;;;4.50;99.90;;;;;;4977494;28;20118;-90
2022/01/19 08:22:39;;;;;;;38.15;23.33;;;4.50;99.90;;;;;;4978748;28;20531;-88
2022/01/19 08:25:28;;;;;;;37.85;23.50;;;4.50;99.90;;;;;;4986702;28;20054;-88
2022/01/19 08:27:59;;;;;;;36.78;22.65;;;4.50;99.90;;;;;;4999575;28;20031;-89
2022/01/19 08:30:34;;;;;;;39.20;23.50;;;4.50;99.90;;;;;;5000285;28;20027;-88
2022/01/19 08:33:09;;;;;;;35.13;22.02;;;4.50;99.90;;;;;;4999046;28;20050;-89
2022/01/19 08:36:16;;;;;;;38.80;23.02;;;4.50;99.90;;;;;;4961160;28;20045;-89
2022/01/19 08:38:54;;;;;;;35.70;21.85;;;4.50;99.90;;;;;;4974881;28;20074;-88
2022/01/19 08:41:40;;;;;;;;;;;;;;;;;;;;;
2022/01/19 08:44:32;;;;;;;31.80;19.63;;;4.50;99.90;;;;;;4977314;28;20386;-87
2022/01/19 08:46:58;;;;;;;35.53;21.70;;;4.50;99.90;;;;;;4975483;28;20423;-87
2022/01/19 08:49:25;;;;;;;37.70;22.25;;;4.50;99.90;;;;;;4972483;28;20129;-87
2022/01/19 08:52:02;;;;;;;;;;;;;;;;;;;;;
2022/01/19 08:54:30;;;;;;;32.88;21.30;;;4.50;99.90;;;;;;4976082;28;20383;-87
2022/01/19 08:56:57;;;;;;;33.83;21.70;;;4.50;99.90;;;;;;4959320;28;20037;-87
2022/01/19 08:59:26;;;;;;;33.17;21.88;;;4.50;99.90;;;;;;4959421;28;20116;-87
2022/01/19 09:02:01;;;;;;;33.58;21.75;;;4.60;99.90;;;;;;4975079;28;20022;-87
2022/01/19 09:07:27;;;;;;;;;;;;;;;;;;;;;
2022/01/19 09:10:06;;;;;;;;;;;;;;;;;;;;;
2022/01/19 09:12:37;;;;;;;31.42;22.52;;;4.60;99.90;;;;;;4968243;28;20055;-88
2022/01/19 09:15:18;;;;;;;34.70;21.98;;;4.60;99.90;;;;;;4940327;29;20033;-88
2022/01/19 09:17:54;;;;;;;;;;;;;;;;;;;;;
2022/01/19 09:20:26;;;;;;;34.17;22.52;;;4.60;99.90;;;;;;4954913;29;20043;-87
2022/01/19 09:23:08;;;;;;;32.58;22.17;;;4.60;99.90;;;;;;4941076;29;20043;-88
2022/01/19 09:26:21;;;;;;;32.92;21.45;;;4.60;99.90;;;;;;4940745;29;20099;-88
2022/01/19 09:28:58;;;;;;;30.15;20.48;;;4.70;99.90;;;;;;4941824;29;20039;-87
2022/01/19 09:31:33;;;;;;;33.42;21.13;;;4.70;99.90;;;;;;4925841;29;20090;-88
2022/01/19 09:34:15;;;;;;;31.02;20.80;;;4.70;99.90;;;;;;4940151;29;20028;-88
2022/01/19 09:36:47;;;;;;;33.72;21.50;;;4.70;99.90;;;;;;4940328;29;20110;-88
2022/01/19 09:42:28;;;;;;;30.88;20.50;;;4.70;99.90;;;;;;4938020;29;20031;-90
2022/01/19 09:44:59;;;;;;;31.55;21.20;;;4.70;99.90;;;;;;4936678;29;20032;-88
2022/01/19 09:47:45;;;;;;;34.50;20.70;;;4.70;99.90;;;;;;4937277;29;20027;-89
2022/01/19 09:50:18;;;;;;;30.40;20.00;;;4.70;99.90;;;;;;4938116;29;20158;-89
2022/01/19 09:53:05;;;;;;;;;;;;;;;;;;;;;
2022/01/19 09:55:44;;;;;;;;;;;;;;;;;;;;;
2022/01/19 09:58:25;;;;;;;27.98;19.50;;;4.80;99.90;;;;;;4980415;28;20051;-89
2022/01/19 10:04:36;;;;;;;30.10;20.20;;;4.80;99.90;;;;;;4958730;29;20030;-87
2022/01/19 10:08:01;;;;;;;;;;;;;;;;;;;;;
2022/01/19 10:11:15;;;;;;;;;;;;;;;;;;;;;
2022/01/19 10:17:29;;;;;;;27.60;18.75;;;4.90;99.90;;;;;;4916469;29;20091;-87
2022/01/19 10:20:33;;;;;;;;;;;;;;;;;;;;;
2022/01/19 10:23:50;;;;;;;;;;;;;;;;;;;;;
2022/01/19 10:26:33;;;;;;;33.13;20.25;;;4.90;99.90;;;;;;4944009;28;20039;-88
2022/01/19 10:29:29;;;;;;;32.00;20.25;;;4.90;99.90;;;;;;4957983;28;20031;-87
2022/01/19 10:35:12;;;;;;;29.35;20.00;;;4.90;99.90;;;;;;4967780;28;20534;-87
2022/01/19 10:37:53;;;;;;;;;;;;;;;;;;;;;
2022/01/19 10:40:38;;;;;;;;;;;;;;;;;;;;;
2022/01/19 10:43:33;;;;;;;32.70;19.77;;;5.00;99.90;;;;;;4960225;28;20065;-87
2022/01/19 10:46:46;;;;;;;30.63;21.05;;;5.00;99.90;;;;;;4973879;28;20018;-87
2022/01/19 10:49:25;;;;;;;29.60;19.98;;;5.10;99.90;;;;;;4931586;28;20046;-88
2022/01/19 10:52:13;;;;;;;28.38;19.58;;;5.10;99.90;;;;;;4942508;28;20463;-88
2022/01/19 10:54:59;;;;;;;;;;;;;;;;;;;;;
2022/01/19 10:57:50;;;;;;;32.05;20.55;;;5.20;99.90;;;;;;4959893;28;20383;-88
2022/01/19 11:00:28;;;;;;;28.45;20.08;;;5.20;99.90;;;;;;4957757;28;20030;-88
2022/01/19 11:03:29;;;;;;;29.50;20.58;;;5.20;99.90;;;;;;4958022;28;20023;-87
2022/01/19 11:06:15;;;;;;;;;;;5.20;99.90;;;;;;4954884;28;20031;-88
2022/01/19 11:09:18;;;;;;;31.20;20.92;;;5.30;99.90;;;;;;4974011;28;19925;-88
2022/01/19 11:12:12;;;;;;;27.50;19.38;;;5.30;99.90;;;;;;4973919;28;20415;-88
2022/01/19 11:14:51;;;;;;;33.08;20.00;;;5.20;99.90;;;;;;4973920;28;20047;-87
2022/01/19 11:17:45;;;;;;;31.10;19.83;;;5.30;99.90;;;;;;4957873;28;20038;-87
2022/01/19 11:20:18;;;;;;;31.70;21.23;;;5.30;99.90;;;;;;4958563;28;20070;-88
2022/01/19 11:26:49;;;;;;;;;;;;;;;;;;;;;
2022/01/19 11:29:43;;;;;;;32.77;20.57;;;5.30;99.90;;;;;;5001769;28;20043;-90
2022/01/19 11:32:39;;;;;;;34.03;20.95;;;5.40;99.90;;;;;;4963173;28;20053;-88
2022/01/19 11:35:30;;;;;;;29.75;20.45;;;5.40;99.90;;;;;;4962187;28;20034;-90
2022/01/19 11:41:55;;;;;;;;;;;;;;;;;;;;;
2022/01/19 11:44:36;;;;;;;35.65;23.08;;;5.40;99.90;;;;;;4879882;28;20063;-91
2022/01/19 11:47:43;;;;;;;33.58;22.40;;;5.40;99.90;;;;;;4961281;28;20038;-89
2022/01/19 11:50:23;;;;;;;36.97;22.50;;;5.40;99.90;;;;;;4940032;28;20039;-92
2022/01/19 11:52:52;;;;;;;32.55;22.63;;;5.40;99.90;;;;;;4961615;28;20023;-89
2022/01/19 11:55:26;;;;;;;30.98;20.75;;;5.40;99.90;;;;;;4961241;28;20023;-90
2022/01/19 11:58:48;;;;;;;33.08;22.08;;;5.50;99.90;;;;;;4961194;28;20101;-90
2022/01/19 12:01:26;;;;;;;28.42;19.90;;;5.50;99.90;;;;;;4899951;29;20242;-89
2022/01/19 12:04:23;;;;;;;31.92;21.27;;;5.50;99.90;;;;;;4923458;28;20092;-89
2022/01/19 12:06:56;;;;;;;28.08;20.00;;;5.60;99.90;;;;;;4960846;28;20027;-88
2022/01/19 12:09:22;;;;;;;31.52;22.05;;;5.60;99.90;;;;;;4945895;28;20034;-88
2022/01/19 12:12:36;;;;;;;32.63;22.13;;;5.50;99.90;;;;;;4960493;28;20019;-88
2022/01/19 12:15:09;;;;;;;31.02;21.13;;;5.60;99.90;;;;;;4975124;28;20055;-88
2022/01/19 12:18:09;;;;;;;34.20;22.10;;;5.60;99.90;;;;;;4960388;28;20467;-88
2022/01/19 12:21:44;;;;;;;31.90;21.75;;;5.60;99.90;;;;;;4945211;28;20468;-87
2022/01/19 12:24:56;;;;;;;32.15;21.42;;;5.60;99.90;;;;;;4955651;28;20507;-87
2022/01/19 12:27:49;;;;;;;33.08;22.58;;;5.60;99.90;;;;;;4975681;28;20034;-88
2022/01/19 12:30:39;;;;;;;28.77;21.42;;;5.60;99.90;;;;;;4960129;28;20030;-88
2022/01/19 12:34:23;;;;;;;30.70;21.77;;;5.60;99.90;;;;;;4975998;28;20133;-88
2022/01/19 12:37:06;;;;;;;30.10;21.23;;;5.60;99.90;;;;;;4962944;28;20038;-88
2022/01/19 12:40:03;;;;;;;32.28;22.17;;;5.70;99.90;;;;;;4960311;28;20038;-88
2022/01/19 12:43:21;;;;;;;34.08;23.83;;;5.70;99.90;;;;;;4961700;28;20117;-87
2022/01/19 12:46:05;;;;;;;28.02;20.55;;;5.80;99.90;;;;;;4943819;28;20039;-88
2022/01/19 12:48:48;;;;;;;32.60;23.52;;;5.80;99.90;;;;;;4963787;28;20031;-88
2022/01/19 12:52:20;;;;;;;33.17;23.23;;;5.80;99.90;;;;;;4984095;28;20045;-88
2022/01/19 12:54:58;;;;;;;34.17;22.48;;;5.90;99.90;;;;;;4960906;29;20031;-88
2022/01/19 12:57:49;;;;;;;;;;;;;;;;;;;;;
2022/01/19 13:00:56;;;;;;;32.50;21.63;;;5.90;99.90;;;;;;4978455;28;20023;-88
2022/01/19 13:03:36;;;;;;;33.72;23.13;;;5.90;99.90;;;;;;4950023;28;20039;-90
2022/01/19 13:06:43;;;;;;;;;;;;;;;;;;;;;
2022/01/19 13:09:35;;;;;;;30.48;21.55;;;5.90;99.90;;;;;;4976895;28;20050;-87
2022/01/19 13:12:21;;;;;;;;;;;;;;;;;;;;;
2022/01/19 13:15:04;;;;;;;36.03;24.02;;;5.90;99.90;;;;;;4976416;28;19906;-88
2022/01/19 13:18:22;;;;;;;;;;;;;;;;;;;;;
2022/01/19 13:21:21;;;;;;;34.58;24.48;;;5.90;99.90;;;;;;4971197;28;20402;-87
2022/01/19 13:24:34;;;;;;;37.97;26.15;;;5.90;99.90;;;;;;4958677;28;20035;-89
2022/01/19 13:27:06;;;;;;;38.45;25.80;;;5.90;99.90;;;;;;4975857;28;20043;-86
2022/01/19 13:29:58;;;;;;;33.97;23.42;;;5.90;99.90;;;;;;4957689;28;20060;-88
2022/01/19 13:32:38;;;;;;;;;;;;;;;;;;;;;
2022/01/19 13:35:34;;;;;;;37.08;25.33;;;5.90;99.90;;;;;;4937668;29;20026;-89
2022/01/19 13:38:21;;;;;;;;;;;;;;;;;;;;;
2022/01/19 13:40:59;;;;;;;38.70;25.50;;;6.00;99.90;;;;;;4938135;29;20034;-88
2022/01/19 13:43:36;;;;;;;32.53;23.75;;;6.00;99.90;;;;;;4958794;28;20061;-88
2022/01/19 13:46:29;;;;;;;36.03;25.05;;;6.00;99.90;;;;;;4945230;28;20058;-87
2022/01/19 13:48:59;;;;;;;37.20;25.23;;;6.10;99.90;;;;;;4957727;28;20090;-87
2022/01/19 13:51:30;;;;;;;42.55;26.27;;;6.10;99.90;;;;;;4957932;28;20419;-87
2022/01/19 13:54:14;;;;;;;37.28;26.67;;;6.00;99.90;;;;;;4975531;28;20027;-87
2022/01/19 13:56:48;;;;;;;35.60;24.67;;;6.10;99.90;;;;;;4941742;28;20030;-88
2022/01/19 13:59:47;;;;;;;;;;;;;;;;;;;;;
2022/01/19 14:02:16;;;;;;;45.22;28.00;;;6.10;99.90;;;;;;4961518;28;20056;-87
2022/01/19 14:05:08;;;;;;;;;;;;;;;;;;;;;
2022/01/19 14:07:54;;;;;;;38.40;27.02;;;6.10;99.90;;;;;;4970790;28;20023;-87
2022/01/19 14:10:43;;;;;;;40.20;27.17;;;6.10;99.90;;;;;;4956617;29;20126;-87
2022/01/19 14:14:00;;;;;;;34.05;24.70;;;6.10;99.90;;;;;;4940468;29;20023;-89
2022/01/19 14:16:35;;;;;;;35.67;25.10;;;6.00;99.90;;;;;;4938866;28;20399;-87
2022/01/19 14:19:26;;;;;;;41.08;26.75;;;6.00;99.90;;;;;;4995246;28;20011;-88
2022/01/19 14:22:17;;;;;;;33.65;24.73;;;6.10;99.90;;;;;;4998489;28;20027;-87
2022/01/19 14:25:26;;;;;;;35.08;23.63;;;6.10;99.90;;;;;;4998551;28;20019;-87
2022/01/19 14:28:28;;;;;;;35.92;25.80;;;6.10;99.90;;;;;;4995893;28;20038;-88
2022/01/19 14:31:15;;;;;;;;;;;;;;;;;;;;;
2022/01/19 14:34:00;;;;;;;37.38;26.23;;;6.10;99.90;;;;;;4975361;28;20035;-89
2022/01/19 14:36:31;;;;;;;37.55;25.33;;;6.20;99.90;;;;;;4973267;28;20050;-87
2022/01/19 14:39:05;;;;;;;38.95;27.30;;;6.20;99.90;;;;;;4975066;28;20058;-87
2022/01/19 14:41:47;;;;;;;37.78;26.20;;;6.20;99.90;;;;;;4974852;28;20079;-87
2022/01/19 14:47:47;;;;;;;37.15;25.83;;;6.20;99.90;;;;;;4970822;28;20399;-89
2022/01/19 14:53:40;;;;;;;37.72;26.02;;;6.10;99.90;;;;;;4971300;28;20027;-88
2022/01/19 14:56:19;;;;;;;;;;;;;;;;;;;;;
2022/01/19 14:58:46;;;;;;;35.50;24.42;;;6.10;99.90;;;;;;4974637;28;20033;-87
2022/01/19 15:01:51;;;;;;;33.95;24.42;;;6.10;99.90;;;;;;4956843;28;20046;-89
2022/01/19 15:04:20;;;;;;;36.20;25.95;;;6.10;99.90;;;;;;4972240;28;20099;-88
2022/01/19 15:07:00;;;;;;;;;;;;;;;;;;;;;
2022/01/19 15:09:36;;;;;;;37.80;25.45;;;6.10;99.90;;;;;;4974212;28;20039;-87
2022/01/19 15:12:09;;;;;;;36.60;25.20;;;6.20;99.90;;;;;;4971113;28;20118;-87
2022/01/19 15:14:39;;;;;;;38.35;25.23;;;6.20;99.90;;;;;;4973203;28;20027;-87
2022/01/19 15:17:11;;;;;;;37.90;25.35;;;6.20;99.90;;;;;;4973676;28;20050;-88
2022/01/19 15:19:56;;;;;;;;;;;;;;;;;;;;;
2022/01/19 15:22:29;;;;;;;41.08;26.30;;;6.20;99.90;;;;;;4973408;28;20039;-89
2022/01/19 15:25:08;;;;;;;39.08;25.58;;;6.20;99.90;;;;;;4973577;28;20037;-90
2022/01/19 15:27:34;;;;;;;38.83;25.52;;;6.20;99.90;;;;;;4973586;28;20022;-88
2022/01/19 15:30:08;;;;;;;41.08;25.33;;;6.20;99.90;;;;;;4956502;28;20046;-89
2022/01/19 15:32:39;;;;;;;34.08;24.05;;;6.20;99.90;;;;;;4957474;28;20522;-89
2022/01/19 15:35:18;;;;;;;;;;;;;;;;;;;;;
2022/01/19 15:38:08;;;;;;;44.35;25.75;;;6.20;99.90;;;;;;4974994;28;20029;-88
2022/01/19 15:40:39;;;;;;;37.78;25.45;;;6.20;99.90;;;;;;4973485;28;20487;-89
2022/01/19 15:43:17;;;;;;;;;;;;;;;;;;;;;
2022/01/19 15:45:49;;;;;;;37.45;25.52;;;6.20;99.90;;;;;;4974938;28;20030;-88
2022/01/19 15:48:30;;;;;;;36.72;24.35;;;6.20;99.90;;;;;;4989609;28;20015;-88
2022/01/19 15:51:00;;;;;;;33.83;23.83;;;6.20;99.90;;;;;;4997831;28;20031;-87
2022/01/19 15:53:39;;;;;;;;;;;;;;;;;;;;;
2022/01/19 15:56:23;;;;;;;;;;;;;;;;;;;;;
2022/01/19 15:58:59;;;;;;;38.40;25.05;;;6.20;99.90;;;;;;4975842;28;20023;-88
2022/01/19 16:02:07;;;;;;;37.63;26.13;;;6.20;99.90;;;;;;4957579;28;20090;-87
2022/01/19 16:04:41;;;;;;;43.30;28.00;;;6.20;99.90;;;;;;4973659;28;20114;-93
2022/01/19 16:13:39;;;;;;;41.58;26.50;;;6.20;99.90;;;;;;4966719;28;20403;-91
2022/01/19 16:26:28;;;;;;;44.53;26.53;;;6.10;99.90;;;;;;4978273;28;20170;-92
2022/01/19 16:29:07;;;;;;;;;;;;;;;;;;;;;
2022/01/19 16:34:48;;;;;;;40.83;25.52;;;6.10;99.90;;;;;;4977461;28;20085;-92
2022/01/19 16:37:39;;;;;;;41.50;26.35;;;6.20;99.90;;;;;;4973934;28;20074;-91
2022/01/19 16:40:20;;;;;;;;;;;6.20;99.90;;;;;;4977110;28;20037;-91
2022/01/19 16:43:52;;;;;;;;;;;;;;;;;;;;;
2022/01/19 16:46:33;;;;;;;;;;;;;;;;;;;;;
2022/01/19 16:49:04;;;;;;;38.65;25.67;;;6.30;99.90;;;;;;4976865;28;20043;-88
2022/01/19 16:52:28;;;;;;;38.95;25.90;;;6.30;99.90;;;;;;4975646;28;20100;-88
2022/01/19 16:58:09;;;;;;;43.63;28.33;;;6.30;99.90;;;;;;4976923;28;20131;-90
2022/01/19 17:00:56;;;;;;;;;;;;;;;;;;;;;
2022/01/19 17:04:02;;;;;;;37.42;23.83;;;6.30;99.90;;;;;;4977613;28;20049;-90
2022/01/19 17:07:19;;;;;;;39.40;24.98;;;6.30;99.90;;;;;;4960519;28;20027;-90
2022/01/19 17:10:12;;;;;;;43.08;26.05;;;6.30;99.90;;;;;;4974112;28;20078;-89
2022/01/19 17:13:36;;;;;;;35.35;24.80;;;6.30;99.90;;;;;;4976757;28;20045;-90
2022/01/19 17:17:44;;;;;;;;;;;;;;;;;;;;;
2022/01/19 17:25:49;;;;;;;;;;;;;;;;;;;;;
2022/01/19 17:28:58;;;;;;;32.88;22.30;;;6.40;99.90;;;;;;4951462;28;20042;-91
2022/01/19 17:32:23;;;;;;;;;;;;;;;;;;;;;
2022/01/19 17:38:33;;;;;;;33.97;24.20;;;6.50;99.90;;;;;;4954483;29;20626;-92
2022/01/19 17:41:33;;;;;;;;;;;;;;;;;;;;;
2022/01/19 17:47:18;;;;;;;33.78;22.95;;;6.50;99.90;;;;;;4933848;28;20125;-88
2022/01/19 17:53:16;;;;;;;31.73;19.85;;;6.60;99.90;;;;;;4943654;29;20476;-89
2022/01/19 17:56:36;;;;;;;;;;;;;;;;;;;;;
2022/01/19 17:58:59;;;;;;;31.20;20.85;;;6.60;99.90;;;;;;4952378;28;20516;-88
2022/01/19 18:01:42;;;;;;;29.52;20.70;;;6.60;99.90;;;;;;4939222;29;20027;-88
2022/01/19 18:04:44;;;;;;;30.92;20.50;;;6.70;99.90;;;;;;4956290;29;20058;-89
2022/01/19 18:10:10;;;;;;;28.10;20.00;;;6.70;99.90;;;;;;4929184;29;20039;-88
2022/01/19 18:12:52;;;;;;;;;;;;;;;;;;;;;
2022/01/19 18:18:43;;;;;;;;;;;6.80;99.90;;;;;;4962434;28;20061;-89
2022/01/19 18:24:34;;;;;;;;;;;;;;;;;;;;;
2022/01/19 18:27:38;;;;;;;;;;;;;;;;;;;;;